Time;durP1;ratioP1;P1;durP2;ratioP2;P2;SDS_P1;SDS_P2;PMS_P1;PMS_P2;Temp;Humidity;BMP_temperature;BMP_pressure;BME280_temperature;BME280_humidity;BME280_pressure;Samples;Min_cycle;Max_cycle;Signal;HPM_P1;HPM_P2
2022/03/20 00:01:17;;;;;;;;;;;4.30;99.90;;;;;;5022267;28;19926;-74
2022/03/20 00:03:44;;;;;;;;;;;4.30;99.90;;;;;;5005381;28;19924;-78
2022/03/20 00:06:10;;;;;;;;;;;4.30;99.90;;;;;;5005802;28;19925;-74
2022/03/20 00:08:37;;;;;;;;;;;4.30;99.90;;;;;;5026998;28;19925;-75
2022/03/20 00:11:04;;;;;;;;;;;4.30;99.90;;;;;;5025483;28;20003;-75
2022/03/20 00:13:31;;;;;;;;;;;4.20;99.90;;;;;;5025698;28;19932;-74
2022/03/20 00:15:58;;;;;;;;;;;4.20;99.90;;;;;;5016955;28;19980;-75
2022/03/20 00:18:25;;;;;;;;;;;4.20;99.90;;;;;;5024497;28;19925;-75
2022/03/20 00:20:51;;;;;;;;;;;4.10;99.90;;;;;;5027126;28;19925;-75
2022/03/20 00:23:18;;;;;;;;;;;4.10;99.90;;;;;;5021292;28;20355;-75
2022/03/20 00:25:45;;;;;;;;;;;4.10;99.90;;;;;;5032548;28;19925;-78
2022/03/20 00:28:11;;;;;;;;;;;4.10;99.90;;;;;;5020485;28;19971;-74
2022/03/20 00:30:38;;;;;;;;;;;4.10;99.90;;;;;;5022816;28;19976;-75
2022/03/20 00:33:04;;;;;;;;;;;4.00;99.90;;;;;;5025257;28;20415;-74
2022/03/20 00:35:31;;;;;;;;;;;3.90;99.90;;;;;;5027941;28;19925;-75
2022/03/20 00:37:57;;;;;;;;;;;3.90;99.90;;;;;;5029244;28;19932;-75
2022/03/20 00:40:24;;;;;;;;;;;3.90;99.90;;;;;;5021491;28;19925;-75
2022/03/20 00:42:50;;;;;;;;;;;3.90;99.90;;;;;;5014694;28;19929;-75
2022/03/20 00:45:17;;;;;;;;;;;3.90;99.90;;;;;;5029459;28;19948;-75
2022/03/20 00:47:43;;;;;;;;;;;3.80;99.90;;;;;;4999632;28;19995;-75
2022/03/20 00:50:10;;;;;;;;;;;3.80;99.90;;;;;;5025084;28;19925;-74
2022/03/20 00:52:36;;;;;;;;;;;3.80;99.90;;;;;;5021305;28;19932;-75
2022/03/20 00:55:03;;;;;;;;;;;3.70;99.90;;;;;;5028930;28;19940;-74
2022/03/20 00:57:30;;;;;;;;;;;3.80;99.90;;;;;;5014098;28;20448;-74
2022/03/20 00:59:56;;;;;;;;;;;3.60;99.90;;;;;;5024996;28;19933;-75
2022/03/20 01:02:23;;;;;;;;;;;3.70;99.90;;;;;;5019473;28;19936;-74
2022/03/20 01:04:49;;;;;;;;;;;3.60;99.90;;;;;;5016421;28;19925;-75
2022/03/20 01:07:16;;;;;;;;;;;3.60;99.90;;;;;;5024940;28;19925;-75
2022/03/20 01:09:43;;;;;;;;;;;3.60;99.90;;;;;;5020700;28;19925;-76
2022/03/20 01:12:10;;;;;;;;;;;3.50;99.90;;;;;;5029759;28;19976;-75
2022/03/20 01:14:36;;;;;;;;;;;3.50;99.90;;;;;;5022271;28;20388;-75
2022/03/20 01:17:04;;;;;;;;;;;3.40;99.90;;;;;;5022011;28;19929;-74
2022/03/20 01:19:31;;;;;;;;;;;3.40;99.90;;;;;;5029127;28;20324;-75
2022/03/20 01:21:58;;;;;;;;;;;3.30;99.90;;;;;;5018765;28;19932;-74
2022/03/20 01:24:27;;;;;;;;;;;3.40;99.90;;;;;;5010510;28;19933;-75
2022/03/20 01:26:54;;;;;;;;;;;3.40;99.90;;;;;;5026334;28;19979;-75
2022/03/20 01:29:20;;;;;;;;;;;3.40;99.90;;;;;;5031291;28;19925;-75
2022/03/20 01:31:47;;;;;;;;;;;3.40;99.90;;;;;;5027225;28;19931;-75
2022/03/20 01:34:13;;;;;;;;;;;3.40;99.90;;;;;;5017210;28;19961;-75
2022/03/20 01:36:40;;;;;;;;;;;3.50;99.90;;;;;;5022290;28;19932;-75
2022/03/20 01:39:07;;;;;;;;;;;3.50;99.90;;;;;;5021164;28;19925;-75
2022/03/20 01:41:33;;;;;;;;;;;3.40;99.90;;;;;;5028925;28;20442;-75
2022/03/20 01:44:00;;;;;;;;;;;3.40;99.90;;;;;;5016835;28;19925;-75
2022/03/20 01:46:26;;;;;;;;;;;3.40;99.90;;;;;;5027256;28;19929;-75
2022/03/20 01:48:53;;;;;;;;;;;3.40;99.90;;;;;;5024431;28;20372;-75
2022/03/20 01:52:10;;;;;;;;;;;3.20;99.90;;;;;;5010697;28;19940;-76
2022/03/20 01:54:07;;;;;;;;;;;3.20;99.90;;;;;;5016629;28;19991;-74
2022/03/20 01:56:34;;;;;;;;;;;3.20;99.90;;;;;;5019837;28;19979;-74
2022/03/20 01:59:01;;;;;;;;;;;3.30;99.90;;;;;;5018060;28;19948;-75
2022/03/20 02:01:27;;;;;;;;;;;3.20;99.90;;;;;;5010297;28;19925;-75
2022/03/20 02:03:54;;;;;;;;;;;3.20;99.90;;;;;;5019523;28;19925;-77
2022/03/20 02:06:20;;;;;;;;;;;3.20;99.90;;;;;;5022397;28;19932;-75
2022/03/20 02:08:47;;;;;;;;;;;3.20;99.90;;;;;;5030127;28;20380;-76
2022/03/20 02:11:13;;;;;;;;;;;3.10;99.90;;;;;;5022834;28;20495;-75
2022/03/20 02:13:40;;;;;;;;;;;3.20;99.90;;;;;;5014225;28;20304;-75
2022/03/20 02:16:07;;;;;;;;;;;3.20;99.90;;;;;;5017292;28;19925;-75
2022/03/20 02:18:34;;;;;;;;;;;3.20;99.90;;;;;;5023844;28;19951;-75
2022/03/20 02:21:01;;;;;;;;;;;3.10;99.90;;;;;;5012581;28;19980;-75
2022/03/20 02:23:28;;;;;;;;;;;3.20;99.90;;;;;;5024909;28;19925;-75
2022/03/20 02:25:56;;;;;;;;;;;3.00;99.90;;;;;;4998767;28;19951;-78
2022/03/20 02:28:22;;;;;;;;;;;3.10;99.90;;;;;;5004793;28;19929;-75
2022/03/20 02:30:49;;;;;;;;;;;3.10;99.90;;;;;;5007776;28;19925;-75
2022/03/20 02:33:17;;;;;;;;;;;3.00;99.90;;;;;;5008702;28;19921;-75
2022/03/20 02:35:43;;;;;;;;;;;3.00;99.90;;;;;;5022820;28;20296;-75
2022/03/20 02:38:10;;;;;;;;;;;3.00;99.90;;;;;;5008654;28;19932;-75
2022/03/20 02:40:37;;;;;;;;;;;3.00;99.90;;;;;;5029876;28;19931;-75
2022/03/20 02:43:03;;;;;;;;;;;3.00;99.90;;;;;;5016327;28;19929;-75
2022/03/20 02:45:30;;;;;;;;;;;2.90;99.90;;;;;;5024293;28;20383;-75
2022/03/20 02:47:57;;;;;;;;;;;3.00;99.90;;;;;;5023153;28;20384;-78
2022/03/20 02:50:24;;;;;;;;;;;2.90;99.90;;;;;;5020180;28;20026;-75
2022/03/20 02:52:51;;;;;;;;;;;2.90;99.90;;;;;;5021615;28;19979;-75
2022/03/20 02:55:18;;;;;;;;;;;2.90;99.90;;;;;;5006998;28;19972;-75
2022/03/20 02:57:47;;;;;;;;;;;2.90;99.90;;;;;;5002482;28;19926;-75
2022/03/20 03:00:13;;;;;;;;;;;2.90;99.90;;;;;;5023473;28;19929;-75
2022/03/20 03:02:42;;;;;;;;;;;2.90;99.90;;;;;;5024964;28;19932;-75
2022/03/20 03:05:09;;;;;;;;;;;2.90;99.90;;;;;;5019940;28;20391;-75
2022/03/20 03:10:55;;;;;;;;;;;2.90;99.90;;;;;;5011490;28;20377;-75
2022/03/20 03:13:06;;;;;;;;;;;2.90;99.90;;;;;;5025287;28;19932;-75
2022/03/20 03:15:33;;;;;;;;;;;2.90;99.90;;;;;;5020999;28;19932;-75
2022/03/20 03:18:00;;;;;;;;;;;2.90;99.90;;;;;;5027722;28;19932;-78
2022/03/20 03:20:26;;;;;;;;;;;2.80;99.90;;;;;;5026860;28;19925;-75
2022/03/20 03:22:53;;;;;;;;;;;2.90;99.90;;;;;;5022597;28;20399;-75
2022/03/20 03:25:19;;;;;;;;;;;2.80;99.90;;;;;;5012065;28;19929;-74
2022/03/20 03:27:46;;;;;;;;;;;2.80;99.90;;;;;;5026651;28;19932;-75
2022/03/20 03:30:13;;;;;;;;;;;2.80;99.90;;;;;;5027200;28;19972;-76
2022/03/20 03:32:40;;;;;;;;;;;2.80;99.90;;;;;;5033620;28;19995;-75
2022/03/20 03:37:51;;;;;;;;;;;2.80;99.90;;;;;;5017676;28;19976;-75
2022/03/20 03:40:17;;;;;;;;;;;2.80;99.90;;;;;;5024214;28;20306;-75
2022/03/20 03:42:44;;;;;;;;;;;2.70;99.90;;;;;;5018020;28;20377;-75
2022/03/20 03:45:10;;;;;;;;;;;2.70;99.90;;;;;;5024108;28;20019;-75
2022/03/20 03:47:37;;;;;;;;;;;2.70;99.90;;;;;;5028430;28;19936;-76
2022/03/20 03:50:03;;;;;;;;;;;2.80;99.90;;;;;;5020478;28;19929;-75
2022/03/20 03:52:30;;;;;;;;;;;2.70;99.90;;;;;;5014342;28;19925;-76
2022/03/20 03:54:57;;;;;;;;;;;2.80;99.90;;;;;;5033394;28;19925;-74
2022/03/20 03:57:24;;;;;;;;;;;2.70;99.90;;;;;;5021214;28;19929;-76
2022/03/20 03:59:50;;;;;;;;;;;2.70;99.90;;;;;;5025092;28;19925;-76
2022/03/20 04:02:17;;;;;;;;;;;2.70;99.90;;;;;;5027993;28;19932;-74
2022/03/20 04:04:45;;;;;;;;;;;2.60;99.90;;;;;;5023876;28;19929;-74
2022/03/20 04:07:12;;;;;;;;;;;2.70;99.90;;;;;;5023894;28;20345;-75
2022/03/20 04:09:38;;;;;;;;;;;2.70;99.90;;;;;;5009272;28;19932;-74
2022/03/20 04:12:05;;;;;;;;;;;2.70;99.90;;;;;;5026530;28;19996;-75
2022/03/20 04:14:32;;;;;;;;;;;2.70;99.90;;;;;;5027542;28;19975;-76
2022/03/20 04:16:59;;;;;;;;;;;2.70;99.90;;;;;;5023636;28;19926;-74
2022/03/20 04:19:25;;;;;;;;;;;2.70;99.90;;;;;;5014182;28;19925;-75
2022/03/20 04:21:52;;;;;;;;;;;2.70;99.90;;;;;;5022501;28;19925;-76
2022/03/20 04:24:18;;;;;;;;;;;2.60;99.90;;;;;;5032086;28;19925;-75
2022/03/20 04:26:46;;;;;;;;;;;2.70;99.90;;;;;;5019536;28;19995;-75
2022/03/20 04:29:12;;;;;;;;;;;2.60;99.90;;;;;;5005610;28;19926;-75
2022/03/20 04:31:40;;;;;;;;;;;2.60;99.90;;;;;;5031034;28;19929;-75
2022/03/20 04:34:06;;;;;;;;;;;2.60;99.90;;;;;;5006743;28;19925;-76
2022/03/20 04:36:34;;;;;;;;;;;2.60;99.90;;;;;;5023713;28;19932;-75
2022/03/20 04:39:01;;;;;;;;;;;2.60;99.90;;;;;;5019512;28;20278;-75
2022/03/20 04:41:30;;;;;;;;;;;2.60;99.90;;;;;;5026151;28;22555;-75
2022/03/20 04:43:57;;;;;;;;;;;2.60;99.90;;;;;;5016985;28;19925;-75
2022/03/20 04:46:23;;;;;;;;;;;2.60;99.90;;;;;;5032507;28;19929;-76
2022/03/20 04:59:47;;;;;;;;;;;2.60;99.90;;;;;;5006991;28;19929;-76
2022/03/20 05:02:13;;;;;;;;;;;2.60;99.90;;;;;;5025816;28;19925;-75
2022/03/20 05:04:40;;;;;;;;;;;2.60;99.90;;;;;;5014065;28;19932;-75
2022/03/20 05:07:06;;;;;;;;;;;2.60;99.90;;;;;;5014153;28;19944;-78
2022/03/20 05:15:01;;;;;;;;;;;2.50;99.90;;;;;;5021435;28;19929;-74
2022/03/20 05:17:28;;;;;;;;;;;2.50;99.90;;;;;;5026290;28;19921;-75
2022/03/20 05:19:55;;;;;;;;;;;2.40;99.90;;;;;;5028287;28;19979;-75
2022/03/20 05:22:21;;;;;;;;;;;2.30;99.90;;;;;;4997972;28;19932;-75
2022/03/20 05:24:48;;;;;;;;;;;2.30;99.90;;;;;;5028627;28;19926;-74
2022/03/20 05:27:15;;;;;;;;;;;2.30;99.90;;;;;;5019725;28;19930;-75
2022/03/20 05:29:41;;;;;;;;;;;2.20;99.90;;;;;;5031608;28;20423;-75
2022/03/20 05:32:08;;;;;;;;;;;2.20;99.90;;;;;;5027258;28;19925;-79
2022/03/20 05:34:34;;;;;;;;;;;2.10;99.90;;;;;;5032097;28;20372;-73
2022/03/20 05:37:01;;;;;;;;;;;2.20;99.90;;;;;;5021679;28;19929;-75
2022/03/20 05:39:27;;;;;;;;;;;2.10;99.90;;;;;;5021843;28;20192;-75
2022/03/20 05:41:54;;;;;;;;;;;2.10;99.90;;;;;;5024190;28;19925;-75
2022/03/20 05:44:21;;;;;;;;;;;2.10;99.90;;;;;;5012016;28;20009;-74
2022/03/20 05:46:48;;;;;;;;;;;2.20;99.90;;;;;;5017821;28;19925;-74
2022/03/20 05:49:15;;;;;;;;;;;2.10;99.90;;;;;;5017953;28;19933;-75
2022/03/20 05:51:42;;;;;;;;;;;2.20;99.90;;;;;;5019729;28;19930;-75
2022/03/20 05:54:09;;;;;;;;;;;2.20;99.90;;;;;;5009734;28;19972;-78
2022/03/20 05:59:20;;;;;;;;;;;2.30;99.90;;;;;;5026826;28;20372;-74
2022/03/20 06:01:46;;;;;;;;;;;2.30;99.90;;;;;;5028830;28;20398;-75
2022/03/20 06:04:13;;;;;;;;;;;2.30;99.90;;;;;;5019514;28;19925;-76
2022/03/20 06:06:40;;;;;;;;;;;2.40;99.90;;;;;;4998816;28;19930;-75
2022/03/20 06:09:06;;;;;;;;;;;2.40;99.90;;;;;;4996474;28;19969;-75
2022/03/20 06:11:34;;;;;;;;;;;2.50;99.90;;;;;;5005523;28;19929;-75
2022/03/20 06:14:00;;;;;;;;;;;2.50;99.90;;;;;;5002679;28;19932;-75
2022/03/20 06:16:28;;;;;;;;;;;2.50;99.90;;;;;;5030699;28;19931;-76
2022/03/20 06:18:54;;;;;;;;;;;2.50;99.90;;;;;;5014642;28;19926;-75
2022/03/20 06:21:21;;;;;;;;;;;2.60;99.90;;;;;;5012592;28;19948;-75
2022/03/20 06:23:48;;;;;;;;;;;2.70;99.90;;;;;;5019050;28;20020;-75
2022/03/20 06:26:16;;;;;;;;;;;2.70;99.90;;;;;;5011936;28;19926;-77
2022/03/20 06:28:43;;;;;;;;;;;2.80;99.90;;;;;;4996319;28;19988;-75
2022/03/20 06:31:11;;;;;;;;;;;2.90;99.90;;;;;;4999421;28;19925;-74
2022/03/20 06:33:38;;;;;;;;;;;2.90;99.90;;;;;;5013645;28;20288;-75
2022/03/20 06:36:05;;;;;;;;;;;3.10;99.90;;;;;;5013019;28;19972;-75
2022/03/20 06:38:31;;;;;;;;;;;3.10;99.90;;;;;;5017324;28;20388;-77
2022/03/20 06:40:58;;;;;;;;;;;3.10;99.90;;;;;;4996418;28;19925;-75
2022/03/20 06:43:24;;;;;;;;;;;3.30;99.90;;;;;;5016790;28;19929;-75
2022/03/20 06:45:52;;;;;;;;;;;3.30;99.90;;;;;;5003169;28;19971;-75
2022/03/20 06:48:19;;;;;;;;;;;3.30;99.90;;;;;;5017804;28;19933;-78
2022/03/20 06:50:46;;;;;;;;;;;3.40;99.90;;;;;;5000512;28;19925;-75
2022/03/20 06:53:13;;;;;;;;;;;3.40;99.90;;;;;;4997138;28;19940;-77
2022/03/20 06:55:39;;;;;;;;;;;3.50;99.90;;;;;;4998957;28;20004;-76
2022/03/20 06:58:06;;;;;;;;;;;3.60;99.90;;;;;;5017755;28;19929;-74
2022/03/20 07:00:32;;;;;;;;;;;3.70;99.90;;;;;;5002255;28;19926;-77
2022/03/20 07:03:00;;;;;;;;;;;3.60;99.90;;;;;;5002169;28;19932;-75
2022/03/20 07:05:26;;;;;;;;;;;3.70;99.90;;;;;;5007672;28;19980;-75
2022/03/20 07:07:53;;;;;;;;;;;3.70;99.90;;;;;;5016061;28;19929;-75
2022/03/20 07:10:20;;;;;;;;;;;3.80;99.90;;;;;;5021065;28;19926;-75
2022/03/20 07:12:47;;;;;;;;;;;3.80;99.90;;;;;;4996865;28;19933;-76
2022/03/20 07:15:13;;;;;;;;;;;3.90;99.90;;;;;;5014980;28;19926;-75
2022/03/20 07:17:40;;;;;;;;;;;4.00;99.90;;;;;;5016300;28;19929;-75
2022/03/20 07:20:09;;;;;;;;;;;4.10;99.90;;;;;;5015219;28;19934;-76
2022/03/20 07:22:35;;;;;;;;;;;4.10;99.90;;;;;;5022168;28;19929;-75
2022/03/20 07:29:29;;;;;;;;;;;4.30;99.90;;;;;;5017036;28;19941;-75
2022/03/20 07:30:33;;;;;;;;;;;4.40;99.90;;;;;;5023327;28;19929;-75
2022/03/20 07:33:00;;;;;;;;;;;4.40;99.90;;;;;;5016165;28;19991;-75
2022/03/20 07:35:27;;;;;;;;;;;4.50;99.90;;;;;;5016355;28;20368;-75
2022/03/20 07:37:53;;;;;;;;;;;4.50;99.90;;;;;;5019500;28;19982;-75
2022/03/20 07:40:21;;;;;;;;;;;4.70;99.90;;;;;;5023106;28;19930;-78
2022/03/20 07:42:47;;;;;;;;;;;4.60;99.90;;;;;;5011408;28;20343;-75
2022/03/20 07:45:14;;;;;;;;;;;4.80;99.90;;;;;;5013704;28;20365;-75
2022/03/20 07:47:40;;;;;;;;;;;4.90;99.90;;;;;;5018764;28;20555;-76
2022/03/20 07:50:08;;;;;;;;;;;4.90;99.90;;;;;;5019545;28;19929;-75
2022/03/20 07:52:36;;;;;;;;;;;4.90;99.90;;;;;;4999242;28;19929;-76
2022/03/20 07:55:04;;;;;;;;;;;5.00;99.90;;;;;;5020510;28;19929;-76
2022/03/20 07:57:31;;;;;;;;;;;4.90;99.90;;;;;;5026485;28;20016;-76
2022/03/20 07:59:58;;;;;;;;;;;4.90;99.90;;;;;;5023415;28;19933;-76
2022/03/20 08:02:24;;;;;;;;;;;5.00;99.90;;;;;;5017565;28;19979;-75
2022/03/20 08:04:51;;;;;;;;;;;5.10;99.90;;;;;;5010153;28;20322;-84
2022/03/20 08:07:19;;;;;;;;;;;5.10;99.90;;;;;;5011861;28;19933;-76
2022/03/20 08:09:46;;;;;;;;;;;5.30;99.90;;;;;;5018580;28;20300;-76
2022/03/20 08:12:12;;;;;;;;;;;5.30;99.90;;;;;;5018915;28;20372;-75
2022/03/20 08:14:39;;;;;;;;;;;5.30;99.90;;;;;;5013826;28;20584;-75
2022/03/20 08:17:08;;;;;;;;;;;5.40;99.90;;;;;;5017386;28;19933;-77
2022/03/20 08:19:34;;;;;;;;;;;5.50;99.90;;;;;;5001131;28;19933;-76
2022/03/20 08:22:03;;;;;;;;;;;5.40;99.90;;;;;;5002253;28;19926;-76
2022/03/20 08:24:29;;;;;;;;;;;5.60;99.90;;;;;;5011697;28;19936;-74
2022/03/20 08:26:57;;;;;;;;;;;5.70;99.90;;;;;;5012495;28;20493;-76
2022/03/20 08:29:24;;;;;;;;;;;5.70;99.90;;;;;;5017060;28;19933;-78
2022/03/20 08:31:54;;;;;;;;;;;5.70;99.90;;;;;;5009689;28;20305;-76
2022/03/20 08:34:20;;;;;;;;;;;5.80;99.90;;;;;;5019191;28;20037;-76
2022/03/20 08:36:47;;;;;;;;;;;5.90;99.90;;;;;;5018601;28;19925;-77
2022/03/20 08:39:13;;;;;;;;;;;6.00;99.90;;;;;;4997840;28;20388;-75
2022/03/20 08:41:43;;;;;;;;;;;6.10;99.90;;;;;;5002271;28;20458;-76
2022/03/20 08:44:09;;;;;;;;;;;6.20;99.90;;;;;;5017138;28;20336;-76
2022/03/20 08:46:36;;;;;;;;;;;6.30;99.90;;;;;;5023404;28;19929;-76
2022/03/20 08:49:07;;;;;;;;;;;6.40;99.90;;;;;;5005071;28;19936;-76
2022/03/20 08:51:34;;;;;;;;;;;6.50;99.90;;;;;;5017205;28;19930;-76
2022/03/20 08:54:00;;;;;;;;;;;6.70;99.90;;;;;;5000168;28;19936;-76
2022/03/20 08:56:27;;;;;;;;;;;6.80;99.50;;;;;;5016804;28;19929;-78
2022/03/20 08:58:53;;;;;;;;;;;6.80;99.70;;;;;;5021073;28;20007;-76
2022/03/20 09:01:20;;;;;;;;;;;7.00;99.10;;;;;;5017652;28;19931;-76
2022/03/20 09:03:49;;;;;;;;;;;6.90;98.90;;;;;;5011679;28;20737;-76
2022/03/20 09:06:16;;;;;;;;;;;7.00;98.50;;;;;;4995328;28;19936;-76
2022/03/20 09:08:43;;;;;;;;;;;7.10;98.70;;;;;;5011667;28;19929;-76
2022/03/20 09:11:09;;;;;;;;;;;7.20;98.00;;;;;;5010120;28;19933;-77
2022/03/20 09:13:36;;;;;;;;;;;7.30;97.20;;;;;;5011964;28;20406;-76
2022/03/20 09:19:04;;;;;;;;;;;7.20;96.20;;;;;;5015309;28;19925;-77
2022/03/20 09:21:30;;;;;;;;;;;7.20;95.90;;;;;;4995325;28;19925;-77
2022/03/20 09:23:57;;;;;;;;;;;7.40;95.70;;;;;;5003691;28;19932;-76
2022/03/20 09:26:23;;;;;;;;;;;7.50;95.40;;;;;;5011241;28;19929;-77
2022/03/20 09:28:50;;;;;;;;;;;7.40;95.30;;;;;;5013240;28;19925;-78
2022/03/20 09:31:16;;;;;;;;;;;7.50;95.00;;;;;;5000958;28;19929;-78
2022/03/20 09:33:43;;;;;;;;;;;7.60;95.30;;;;;;5012160;28;19930;-77
2022/03/20 09:36:10;;;;;;;;;;;7.70;95.70;;;;;;5011498;28;19926;-77
2022/03/20 09:38:36;;;;;;;;;;;7.80;94.60;;;;;;5012999;28;19925;-77
2022/03/20 09:41:07;;;;;;;;;;;7.70;93.60;;;;;;5011452;28;19930;-77
2022/03/20 09:43:33;;;;;;;;;;;7.70;94.20;;;;;;4996196;28;19930;-78
2022/03/20 09:46:00;;;;;;;;;;;7.70;93.60;;;;;;5008239;28;19930;-78
2022/03/20 09:48:26;;;;;;;;;;;7.90;93.70;;;;;;4992663;28;19929;-77
2022/03/20 09:50:53;;;;;;;;;;;8.00;94.00;;;;;;5015357;28;19925;-77
2022/03/20 09:53:19;;;;;;;;;;;8.10;93.30;;;;;;5023405;28;19929;-77
2022/03/20 09:55:46;;;;;;;;;;;8.10;92.60;;;;;;5008305;28;20452;-77
2022/03/20 09:58:13;;;;;;;;;;;8.30;93.80;;;;;;5008366;28;19933;-77
2022/03/20 10:00:39;;;;;;;;;;;8.20;92.00;;;;;;5023384;28;19936;-77
2022/03/20 10:03:06;;;;;;;;;;;8.40;92.60;;;;;;5010412;28;19933;-76
2022/03/20 10:05:33;;;;;;;;;;;8.40;91.00;;;;;;5008628;28;20009;-79
2022/03/20 10:07:59;;;;;;;;;;;8.50;90.40;;;;;;5020531;28;20379;-77
2022/03/20 10:10:28;;;;;;;;;;;8.50;90.50;;;;;;5006252;28;19980;-78
2022/03/20 10:12:56;;;;;;;;;;;8.50;88.80;;;;;;5009674;28;19939;-77
2022/03/20 10:15:22;;;;;;;;;;;8.60;90.30;;;;;;5010052;28;20331;-77
2022/03/20 10:17:49;;;;;;;;;;;8.60;89.20;;;;;;5008935;28;20301;-77
2022/03/20 10:20:16;;;;;;;;;;;8.80;88.60;;;;;;4995233;28;19929;-77
2022/03/20 10:22:42;;;;;;;;;;;8.80;89.30;;;;;;5001626;28;19951;-77
2022/03/20 10:25:09;;;;;;;;;;;8.90;88.40;;;;;;5018810;28;20384;-77
2022/03/20 10:27:35;;;;;;;;;;;8.90;89.70;;;;;;5011243;28;19930;-79
2022/03/20 10:30:02;;;;;;;;;;;9.00;88.10;;;;;;5027944;28;19929;-77
2022/03/20 10:32:28;;;;;;;;;;;9.10;86.60;;;;;;5023215;28;19939;-77
2022/03/20 10:34:55;;;;;;;;;;;9.10;85.80;;;;;;5003202;28;19944;-79
2022/03/20 10:37:21;;;;;;;;;;;9.20;86.20;;;;;;5009430;28;20028;-77
2022/03/20 10:39:48;;;;;;;;;;;9.20;85.60;;;;;;5019835;28;19925;-77
2022/03/20 10:42:14;;;;;;;;;;;9.20;84.80;;;;;;5023358;28;19929;-77
2022/03/20 10:44:41;;;;;;;;;;;9.20;83.60;;;;;;5016922;28;19926;-76
2022/03/20 10:47:12;;;;;;;;;;;9.10;83.20;;;;;;5011644;28;19928;-77
2022/03/20 10:49:38;;;;;;;;;;;9.20;84.30;;;;;;5016774;28;19933;-76
2022/03/20 10:52:05;;;;;;;;;;;9.30;84.40;;;;;;5010971;28;19955;-76
2022/03/20 10:54:31;;;;;;;;;;;9.40;82.20;;;;;;5005779;28;19932;-77
2022/03/20 10:56:58;;;;;;;;;;;9.50;81.00;;;;;;5029495;28;19933;-77
2022/03/20 10:59:24;;;;;;;;;;;9.40;80.10;;;;;;5012381;28;19926;-77
2022/03/20 11:01:51;;;;;;;;;;;9.50;81.80;;;;;;5026002;28;19929;-77
2022/03/20 11:04:18;;;;;;;;;;;9.60;83.00;;;;;;5023557;28;19929;-77
2022/03/20 11:06:45;;;;;;;;;;;9.70;82.30;;;;;;5015358;28;19936;-77
2022/03/20 11:09:12;;;;;;;;;;;9.70;80.90;;;;;;5016808;28;19936;-77
2022/03/20 11:11:38;;;;;;;;;;;9.80;78.80;;;;;;5013615;28;19933;-80
2022/03/20 11:14:05;;;;;;;;;;;9.90;81.60;;;;;;5013124;28;20459;-77
2022/03/20 11:16:32;;;;;;;;;;;9.90;80.50;;;;;;5017578;28;19936;-79
2022/03/20 11:18:58;;;;;;;;;;;10.00;78.50;;;;;;4996664;28;20376;-77
2022/03/20 11:21:25;;;;;;;;;;;10.10;77.20;;;;;;4996804;28;19936;-77
2022/03/20 11:23:51;;;;;;;;;;;10.00;74.60;;;;;;4997857;28;19936;-77
2022/03/20 11:26:18;;;;;;;;;;;10.00;74.30;;;;;;4998058;28;19932;-77
2022/03/20 11:28:45;;;;;;;;;;;10.00;72.00;;;;;;4999144;28;19932;-78
2022/03/20 11:31:11;;;;;;;;;;;10.10;72.20;;;;;;5015291;28;20288;-77
2022/03/20 11:33:38;;;;;;;;;;;10.10;72.70;;;;;;5013441;28;20320;-79
2022/03/20 11:36:05;;;;;;;;;;;10.20;71.70;;;;;;5009084;28;19932;-77
2022/03/20 11:38:35;;;;;;;;;;;10.20;71.10;;;;;;5025005;28;19929;-77
2022/03/20 11:41:02;;;;;;;;;;;10.30;71.60;;;;;;5020546;28;19925;-76
2022/03/20 11:43:28;;;;;;;;;;;10.30;70.10;;;;;;5009572;28;19929;-77
2022/03/20 11:45:55;;;;;;;;;;;10.30;70.50;;;;;;5011374;28;19945;-78
2022/03/20 11:48:21;;;;;;;;;;;10.40;71.30;;;;;;5013066;28;19929;-78
2022/03/20 11:50:48;;;;;;;;;;;10.50;69.50;;;;;;4994986;28;19929;-75
2022/03/20 11:53:14;;;;;;;;;;;10.50;68.60;;;;;;4996705;28;19933;-77
2022/03/20 11:55:41;;;;;;;;;;;10.50;69.60;;;;;;5011066;28;20024;-81
2022/03/20 11:58:07;;;;;;;;;;;10.50;70.10;;;;;;5012133;28;19932;-77
2022/03/20 12:00:34;;;;;;;;;;;10.60;70.00;;;;;;5011487;28;20009;-77
2022/03/20 12:03:01;;;;;;;;;;;10.70;70.00;;;;;;4996707;28;20265;-77
2022/03/20 12:05:27;;;;;;;;;;;10.70;68.30;;;;;;5011383;28;20369;-78
2022/03/20 12:07:54;;;;;;;;;;;10.80;67.70;;;;;;5010943;28;19936;-77
2022/03/20 12:10:21;;;;;;;;;;;10.80;68.30;;;;;;5000490;28;20639;-77
2022/03/20 12:12:48;;;;;;;;;;;10.80;65.40;;;;;;4995595;28;20019;-77
2022/03/20 12:15:15;;;;;;;;;;;10.90;66.70;;;;;;5014802;28;19936;-77
2022/03/20 12:17:41;;;;;;;;;;;11.00;66.20;;;;;;4998148;28;20365;-80
2022/03/20 12:20:08;;;;;;;;;;;11.00;65.90;;;;;;4997475;28;19925;-77
2022/03/20 12:22:35;;;;;;;;;;;11.10;65.50;;;;;;5005831;28;19930;-78
2022/03/20 12:25:04;;;;;;;;;;;11.00;65.60;;;;;;5027052;28;20011;-77
2022/03/20 12:27:31;;;;;;;;;;;11.20;65.60;;;;;;5008294;28;19926;-79
2022/03/20 12:29:58;;;;;;;;;;;11.20;65.80;;;;;;5014934;28;19926;-77
2022/03/20 12:32:24;;;;;;;;;;;11.30;65.20;;;;;;5018428;28;19992;-77
2022/03/20 12:34:51;;;;;;;;;;;11.40;65.00;;;;;;5021316;28;20487;-77
2022/03/20 12:37:18;;;;;;;;;;;11.40;63.20;;;;;;5014657;28;19929;-77
2022/03/20 12:39:44;;;;;;;;;;;11.50;63.00;;;;;;4994858;28;19968;-80
2022/03/20 12:42:11;;;;;;;;;;;11.40;63.30;;;;;;5003567;28;19930;-77
2022/03/20 12:44:37;;;;;;;;;;;11.30;63.40;;;;;;5007237;28;19933;-78
2022/03/20 12:47:04;;;;;;;;;;;11.30;64.80;;;;;;5003621;28;20000;-78
2022/03/20 12:49:31;;;;;;;;;;;11.40;64.50;;;;;;5027987;28;19936;-77
2022/03/20 12:51:57;;;;;;;;;;;11.30;62.30;;;;;;5005885;28;19933;-77
2022/03/20 12:54:24;;;;;;;;;;;11.50;63.80;;;;;;5010909;28;19929;-78
2022/03/20 12:56:50;;;;;;;;;;;11.60;64.60;;;;;;5003807;28;19929;-79
2022/03/20 12:59:17;;;;;;;;;;;11.70;61.70;;;;;;5018360;28;19934;-77
2022/03/20 13:01:44;;;;;;;;;;;11.80;62.00;;;;;;5015658;28;19930;-79
2022/03/20 13:04:10;;;;;;;;;;;11.80;60.00;;;;;;5022604;28;20752;-77
2022/03/20 13:06:37;;;;;;;;;;;11.70;60.90;;;;;;5015721;28;19936;-78
2022/03/20 13:09:03;;;;;;;;;;;11.60;60.40;;;;;;5016627;28;19929;-78
2022/03/20 13:14:15;;;;;;;;;;;11.60;61.50;;;;;;5025181;28;19925;-77
2022/03/20 13:16:41;;;;;;;;;;;11.70;59.50;;;;;;5005991;28;19945;-77
2022/03/20 13:19:08;;;;;;;;;;;11.90;60.20;;;;;;5022391;28;20514;-77
2022/03/20 13:21:34;;;;;;;;;;;11.90;61.30;;;;;;5005579;28;19925;-77
2022/03/20 13:24:01;;;;;;;;;;;11.90;60.30;;;;;;5027086;28;19931;-80
2022/03/20 13:26:27;;;;;;;;;;;12.00;62.30;;;;;;5016901;28;19925;-77
2022/03/20 13:28:54;;;;;;;;;;;12.00;59.60;;;;;;5015124;28;19932;-77
2022/03/20 13:31:21;;;;;;;;;;;12.10;59.20;;;;;;5024025;28;20369;-77
2022/03/20 13:33:51;;;;;;;;;;;12.10;60.10;;;;;;5003992;28;19929;-79
2022/03/20 13:36:17;;;;;;;;;;;12.10;59.20;;;;;;5021660;28;19929;-79
2022/03/20 13:38:44;;;;;;;;;;;12.10;59.20;;;;;;5009121;28;19929;-77
2022/03/20 13:41:11;;;;;;;;;;;12.20;61.30;;;;;;5011508;28;19932;-80
2022/03/20 13:43:38;;;;;;;;;;;12.20;61.80;;;;;;5011303;28;19933;-77
2022/03/20 13:46:04;;;;;;;;;;;12.20;59.90;;;;;;5015244;28;19932;-77
2022/03/20 13:48:32;;;;;;;;;;;12.20;59.40;;;;;;5020675;28;19936;-78
2022/03/20 13:50:59;;;;;;;;;;;12.20;58.90;;;;;;5003636;28;19931;-78
2022/03/20 13:53:26;;;;;;;;;;;12.30;57.20;;;;;;5022151;28;19936;-77
2022/03/20 13:55:52;;;;;;;;;;;12.20;56.60;;;;;;5011328;28;19929;-78
2022/03/20 13:58:19;;;;;;;;;;;12.20;58.00;;;;;;4990114;28;20005;-78
2022/03/20 14:00:46;;;;;;;;;;;12.30;56.80;;;;;;5009922;28;19949;-77
2022/03/20 14:03:12;;;;;;;;;;;12.30;57.50;;;;;;5014946;28;19926;-78
2022/03/20 14:05:39;;;;;;;;;;;12.30;58.40;;;;;;5015418;28;20452;-77
2022/03/20 14:08:07;;;;;;;;;;;12.30;57.50;;;;;;5019874;28;20475;-77
2022/03/20 14:10:35;;;;;;;;;;;12.30;57.10;;;;;;5003082;28;19992;-79
2022/03/20 14:13:02;;;;;;;;;;;12.30;57.40;;;;;;4999816;28;19926;-77
2022/03/20 14:15:29;;;;;;;;;;;12.40;60.20;;;;;;5016144;28;19929;-77
2022/03/20 14:17:56;;;;;;;;;;;12.30;58.20;;;;;;5001823;28;19936;-78
2022/03/20 14:20:23;;;;;;;;;;;12.20;58.80;;;;;;5018870;28;19925;-78
2022/03/20 14:22:49;;;;;;;;;;;12.10;59.40;;;;;;5019307;28;19929;-78
2022/03/20 14:25:16;;;;;;;;;;;12.00;58.80;;;;;;5023633;28;19929;-77
2022/03/20 14:27:42;;;;;;;;;;;12.00;58.90;;;;;;5004236;28;20300;-77
2022/03/20 14:41:06;;;;;;;;;;;12.10;60.00;;;;;;5007007;28;20324;-76
2022/03/20 14:43:32;;;;;;;;;;;12.20;57.60;;;;;;5008745;28;19930;-76
2022/03/20 14:46:00;;;;;;;;;;;12.20;57.80;;;;;;5023979;28;19929;-78
2022/03/20 14:48:29;;;;;;;;;;;12.20;60.10;;;;;;5025039;28;19925;-77
2022/03/20 14:50:55;;;;;;;;;;;12.20;59.20;;;;;;4998466;28;20299;-80
2022/03/20 14:53:22;;;;;;;;;;;12.20;60.50;;;;;;5019908;28;19932;-76
2022/03/20 14:55:48;;;;;;;;;;;12.30;58.30;;;;;;5020107;28;19937;-77
2022/03/20 14:58:15;;;;;;;;;;;12.20;59.00;;;;;;5025151;28;19925;-76
2022/03/20 15:00:42;;;;;;;;;;;12.20;58.50;;;;;;5015057;28;19933;-77
2022/03/20 15:03:08;;;;;;;;;;;12.20;56.80;;;;;;5014928;28;19982;-77
2022/03/20 15:05:35;;;;;;;;;;;12.10;57.60;;;;;;5023018;28;19929;-77
2022/03/20 15:13:29;;;;;;;;;;;12.10;59.20;;;;;;5011205;28;20355;-77